Terminal Aerodrome Forecast
Issued by NWS Jackson, MS

Home | Current Version | Previous Version | Text Only | Print | Product List | Glossary On
Versions: 1 2 3 4 5 6 7 8 9 10 11 12 13 14 15 16 17 18
000
FTUS44 KJAN 041300 AAA
TAFHBG
TAF AMD
KHBG 041335Z 0414/0512 17006KT P6SM VCSH BKN013 OVC021
     FM041600 20012G18KT P6SM OVC040
     FM050200 18006KT P6SM OVC020
     FM050600 21006KT 6SM BR OVC007
     FM050900 34011KT 6SM BR VCSH OVC003=

USA.gov is the U.S. government's official web portal to all federal, state and local government web resources and services.